createdAt,value
2023-05-14T00:01:18.143Z,6.82
2023-05-14T00:03:44.973Z,7.25
2023-05-14T00:06:11.789Z,7.10
2023-05-14T00:08:38.526Z,6.70
2023-05-14T00:11:05.635Z,6.97
2023-05-14T00:13:32.632Z,7.28
2023-05-14T00:15:59.351Z,7.10
2023-05-14T00:18:26.224Z,7.35
2023-05-14T00:20:55.073Z,7.32
2023-05-14T00:23:24.916Z,7.82
2023-05-14T00:25:51.669Z,7.68
2023-05-14T00:28:18.417Z,7.18
2023-05-14T00:30:45.514Z,7.25
2023-05-14T00:33:12.329Z,8.13
2023-05-14T00:35:39.254Z,9.95
2023-05-14T00:38:06.157Z,9.10
2023-05-14T00:40:32.982Z,8.63
2023-05-14T00:42:59.697Z,9.05
2023-05-14T00:45:26.435Z,10.18
2023-05-14T00:47:54.224Z,10.15
2023-05-14T00:50:21.499Z,8.77
2023-05-14T00:52:48.452Z,9.32
2023-05-14T00:55:16.897Z,8.98
2023-05-14T00:57:43.804Z,8.57
2023-05-14T01:02:52.328Z,9.40
2023-05-14T01:05:19.490Z,8.98
2023-05-14T01:08:05.618Z,8.35
2023-05-14T01:10:42.878Z,8.52
2023-05-14T01:13:14.329Z,8.10
2023-05-14T01:15:42.198Z,8.45
2023-05-14T01:18:11.664Z,8.40
2023-05-14T01:20:38.471Z,8.45
2023-05-14T01:23:05.274Z,8.60
2023-05-14T01:25:32.484Z,8.68
2023-05-14T01:28:24.793Z,8.98
2023-05-14T01:30:58.365Z,7.97
2023-05-14T01:33:26.654Z,8.47
2023-05-14T01:35:54.504Z,8.38
2023-05-14T01:38:22.073Z,7.78
2023-05-14T01:40:49.399Z,7.60
2023-05-14T01:43:16.551Z,7.60
2023-05-14T01:45:43.938Z,7.78
2023-05-14T01:48:11.083Z,8.75
2023-05-14T01:50:38.102Z,8.43
2023-05-14T01:53:04.877Z,8.88
2023-05-14T01:55:31.603Z,9.18
2023-05-14T01:57:58.318Z,9.45
2023-05-14T02:00:26.338Z,9.15
2023-05-14T02:02:53.385Z,8.90
2023-05-14T02:05:20.394Z,8.80
2023-05-14T02:07:47.210Z,8.63
2023-05-14T02:10:13.906Z,9.15
2023-05-14T02:12:40.743Z,8.50
2023-05-14T02:15:09.283Z,8.88
2023-05-14T02:17:36.056Z,8.82
2023-05-14T02:20:02.990Z,8.65
2023-05-14T02:22:29.691Z,9.23
2023-05-14T02:24:56.409Z,9.05
2023-05-14T02:27:23.140Z,8.82
2023-05-14T02:29:50.224Z,8.50
2023-05-14T02:32:16.991Z,8.95
2023-05-14T02:34:43.835Z,8.70
2023-05-14T02:37:10.541Z,7.60
2023-05-14T02:39:37.301Z,7.50
2023-05-14T02:42:04.151Z,7.70
2023-05-14T02:44:32.041Z,7.47
2023-05-14T02:46:58.925Z,7.88
2023-05-14T02:49:25.743Z,8.13
2023-05-14T02:51:54.570Z,8.65
2023-05-14T02:54:21.278Z,8.60
2023-05-14T02:56:48.154Z,8.73
2023-05-14T02:59:14.897Z,8.32
2023-05-14T03:01:42.333Z,8.57
2023-05-14T03:04:09.482Z,7.35
2023-05-14T03:06:36.227Z,7.28
2023-05-14T03:09:03.063Z,8.73
2023-05-14T03:11:29.882Z,9.18
2023-05-14T03:13:56.677Z,8.80
2023-05-14T03:16:23.434Z,8.65
2023-05-14T03:18:50.660Z,8.02
2023-05-14T03:21:17.534Z,7.40
2023-05-14T03:23:44.584Z,7.43
2023-05-14T03:26:11.415Z,7.30
2023-05-14T03:28:38.139Z,7.03
2023-05-14T03:31:05.180Z,7.65
2023-05-14T03:33:32.171Z,7.97
2023-05-14T03:35:58.853Z,8.13
2023-05-14T03:38:25.685Z,7.88
2023-05-14T03:40:52.561Z,8.15
2023-05-14T03:43:19.351Z,7.93
2023-05-14T03:45:46.113Z,8.52
2023-05-14T03:48:13.302Z,8.73
2023-05-14T03:50:40.662Z,8.68
2023-05-14T03:53:07.589Z,8.80
2023-05-14T03:55:34.374Z,8.63
2023-05-14T03:58:02.344Z,9.00
2023-05-14T04:00:29.757Z,8.88
2023-05-14T04:02:56.620Z,9.20
2023-05-14T04:05:24.051Z,8.30
2023-05-14T04:07:52.933Z,9.00
2023-05-14T04:10:19.851Z,8.80
2023-05-14T04:12:46.584Z,10.05
2023-05-14T04:15:13.457Z,9.45
2023-05-14T04:17:40.507Z,9.30
2023-05-14T04:20:08.347Z,9.05
2023-05-14T04:22:35.308Z,8.10
2023-05-14T04:25:02.319Z,8.73
2023-05-14T04:27:29.101Z,8.27
2023-05-14T04:29:56.130Z,9.30
2023-05-14T04:32:23.587Z,11.25
2023-05-14T04:34:51.447Z,9.48
2023-05-14T04:37:18.359Z,10.00
2023-05-14T04:39:45.930Z,10.43
2023-05-14T04:42:12.872Z,9.85
2023-05-14T04:44:39.705Z,9.73
2023-05-14T04:47:07.349Z,9.27
2023-05-14T04:49:34.208Z,9.35
2023-05-14T04:52:01.953Z,9.60
2023-05-14T04:54:28.803Z,8.80
2023-05-14T04:56:56.275Z,9.38
2023-05-14T04:59:23.136Z,8.75
2023-05-14T05:01:51.954Z,9.60
2023-05-14T05:04:19.431Z,9.20
2023-05-14T05:06:49.434Z,9.20
2023-05-14T05:09:18.547Z,9.05
2023-05-14T05:11:45.444Z,9.23
2023-05-14T05:14:12.169Z,9.32
2023-05-14T05:16:39.005Z,9.20
2023-05-14T05:19:06.101Z,9.20
2023-05-14T05:21:33.723Z,9.20
2023-05-14T05:24:00.638Z,9.35
2023-05-14T05:26:27.726Z,8.52
2023-05-14T05:28:54.601Z,8.40
2023-05-14T05:31:21.602Z,9.55
2023-05-14T05:33:48.564Z,9.07
2023-05-14T05:36:15.318Z,9.45
2023-05-14T05:38:42.885Z,9.52
2023-05-14T05:41:09.625Z,9.15
2023-05-14T05:43:36.947Z,9.02
2023-05-14T05:46:03.774Z,9.02
2023-05-14T05:48:30.864Z,9.30
2023-05-14T05:50:58.167Z,8.15
2023-05-14T05:53:25.230Z,8.60
2023-05-14T05:55:52.169Z,8.98
2023-05-14T05:58:19.557Z,8.88
2023-05-14T06:00:47.701Z,8.25
2023-05-14T06:03:14.571Z,8.40
2023-05-14T06:05:41.932Z,8.38
2023-05-14T06:08:09.320Z,8.43
2023-05-14T06:10:36.680Z,8.27
2023-05-14T06:13:04.288Z,8.35
2023-05-14T06:15:31.007Z,8.57
2023-05-14T06:17:57.992Z,8.90
2023-05-14T06:20:25.072Z,9.23
2023-05-14T06:22:52.519Z,9.30
2023-05-14T06:25:19.513Z,9.20
2023-05-14T06:27:46.834Z,9.45
2023-05-14T06:30:14.295Z,9.35
2023-05-14T06:32:41.147Z,9.23
2023-05-14T06:35:09.189Z,9.65
2023-05-14T06:37:36.093Z,10.10
2023-05-14T06:40:04.223Z,9.70
2023-05-14T06:42:31.052Z,8.98
2023-05-14T06:44:57.888Z,9.10
2023-05-14T06:47:25.206Z,8.77
2023-05-14T06:49:52.521Z,8.75
2023-05-14T06:52:19.305Z,9.05
2023-05-14T06:54:46.310Z,8.80
2023-05-14T06:57:13.816Z,8.55
2023-05-14T06:59:40.529Z,8.25
2023-05-14T07:02:07.530Z,8.30
2023-05-14T07:04:34.674Z,7.47
2023-05-14T07:07:01.863Z,7.45
2023-05-14T07:09:29.221Z,7.40
2023-05-14T07:11:56.090Z,7.28
2023-05-14T07:14:22.874Z,7.47
2023-05-14T07:16:49.670Z,7.30
2023-05-14T07:19:16.613Z,7.15
2023-05-14T07:21:43.931Z,7.25
2023-05-14T07:24:10.769Z,6.70
2023-05-14T07:26:37.856Z,6.60
2023-05-14T07:29:04.628Z,7.35
2023-05-14T07:31:32.260Z,6.93
2023-05-14T07:33:59.715Z,5.90
2023-05-14T07:36:26.536Z,5.68
2023-05-14T07:38:53.259Z,6.07
2023-05-14T07:41:20.137Z,6.05
2023-05-14T07:43:46.890Z,5.80
2023-05-14T07:46:14.290Z,6.10
2023-05-14T07:48:41.336Z,5.53
2023-05-14T07:51:08.117Z,5.40
2023-05-14T07:53:34.946Z,5.80
2023-05-14T07:56:01.794Z,5.40
2023-05-14T07:58:29.208Z,5.22
2023-05-14T08:00:56.874Z,5.47
2023-05-14T08:03:23.872Z,5.30
2023-05-14T08:05:52.456Z,5.28
2023-05-14T08:08:19.328Z,4.80
2023-05-14T08:10:46.073Z,4.50
2023-05-14T08:13:12.767Z,4.97
2023-05-14T08:15:39.621Z,5.35
2023-05-14T08:18:06.619Z,5.25
2023-05-14T08:20:33.592Z,4.80
2023-05-14T08:23:00.377Z,5.20
2023-05-14T08:25:27.226Z,5.15
2023-05-14T08:27:54.541Z,4.90
2023-05-14T08:30:22.373Z,5.20
2023-05-14T08:32:49.830Z,4.68
2023-05-14T08:35:17.701Z,4.80
2023-05-14T08:37:46.521Z,4.30
2023-05-14T08:40:13.983Z,4.50
2023-05-14T08:42:45.263Z,4.50
2023-05-14T08:45:22.298Z,4.90
2023-05-14T08:47:50.976Z,5.20
2023-05-14T08:50:19.906Z,5.05
2023-05-14T08:52:49.334Z,4.90
2023-05-14T08:55:16.693Z,5.35
2023-05-14T08:57:46.925Z,4.40
2023-05-14T09:00:15.894Z,5.03
2023-05-14T09:02:44.958Z,4.50
2023-05-14T09:05:12.756Z,4.93
2023-05-14T09:07:39.903Z,4.75
2023-05-14T09:10:09.390Z,4.65
2023-05-14T09:12:36.674Z,4.72
2023-05-14T09:15:05.167Z,4.47
2023-05-14T09:17:32.378Z,4.60
2023-05-14T09:19:59.815Z,4.30
2023-05-14T09:22:32.927Z,4.40
2023-05-14T09:25:07.330Z,4.30
2023-05-14T09:27:34.503Z,4.40
2023-05-14T09:30:14.400Z,4.60
2023-05-14T09:32:50.636Z,4.30
2023-05-14T09:35:18.922Z,4.28
2023-05-14T09:37:49.545Z,3.92
2023-05-14T09:40:17.555Z,4.30
2023-05-14T09:42:44.495Z,4.30
2023-05-14T09:45:11.864Z,4.35
2023-05-14T09:47:39.543Z,4.18
2023-05-14T09:50:08.347Z,3.67
2023-05-14T09:52:35.948Z,3.63
2023-05-14T09:55:03.041Z,3.50
2023-05-14T09:57:29.988Z,3.80
2023-05-14T09:59:56.864Z,4.20
2023-05-14T10:02:34.203Z,3.60
2023-05-14T10:05:02.977Z,3.40
2023-05-14T10:07:34.130Z,3.10
2023-05-14T10:10:03.821Z,3.22
2023-05-14T10:12:34.907Z,3.47
2023-05-14T10:15:13.964Z,4.00
2023-05-14T10:17:41.839Z,3.60
2023-05-14T10:20:10.407Z,2.97
2023-05-14T10:22:37.410Z,3.33
2023-05-14T10:25:04.955Z,3.38
2023-05-14T10:27:32.022Z,3.47
2023-05-14T10:29:58.838Z,3.60
2023-05-14T10:32:26.723Z,3.80
2023-05-14T10:34:54.008Z,3.90
2023-05-14T10:37:25.770Z,3.80
2023-05-14T10:40:13.370Z,3.63
2023-05-14T10:42:41.215Z,3.60
2023-05-14T10:45:09.300Z,4.03
2023-05-14T10:47:37.586Z,3.53
2023-05-14T10:50:06.900Z,4.03
2023-05-14T10:52:35.639Z,3.22
2023-05-14T10:55:10.583Z,3.30
2023-05-14T10:57:39.259Z,3.13
2023-05-14T11:00:09.962Z,3.28
2023-05-14T11:02:38.442Z,3.90
2023-05-14T11:05:14.453Z,3.20
2023-05-14T11:07:46.209Z,3.20
2023-05-14T11:10:14.853Z,2.90
2023-05-14T11:12:47.464Z,3.10
2023-05-14T11:15:22.014Z,2.83
2023-05-14T11:17:50.644Z,3.00
2023-05-14T11:20:18.460Z,2.75
2023-05-14T11:22:46.332Z,3.70
2023-05-14T11:25:16.494Z,2.83
2023-05-14T11:27:44.696Z,2.65
2023-05-14T11:30:21.099Z,2.53
2023-05-14T11:32:49.765Z,2.70
2023-05-14T11:35:17.565Z,2.40
2023-05-14T11:37:50.983Z,2.60
2023-05-14T11:40:18.203Z,2.63
2023-05-14T11:42:45.632Z,2.40
2023-05-14T11:45:13.407Z,2.40
2023-05-14T11:47:41.644Z,2.60
2023-05-14T11:50:21.237Z,2.53
2023-05-14T11:52:50.910Z,2.25
2023-05-14T11:55:18.141Z,2.40
2023-05-14T11:57:45.348Z,2.35
2023-05-14T12:00:22.039Z,2.50
2023-05-14T12:02:51.017Z,2.50
2023-05-14T12:05:24.430Z,2.50
2023-05-14T12:07:59.758Z,2.60
2023-05-14T12:10:26.639Z,2.40
2023-05-14T12:12:53.783Z,2.45
2023-05-14T12:15:22.122Z,2.30
2023-05-14T12:17:52.553Z,2.40
2023-05-14T12:20:19.415Z,2.33
2023-05-14T12:22:46.304Z,2.15
2023-05-14T12:25:14.296Z,2.20
2023-05-14T12:27:41.727Z,1.95
2023-05-14T12:32:42.191Z,2.05
2023-05-14T12:35:09.741Z,2.15
2023-05-14T12:37:37.768Z,2.58
2023-05-14T12:40:09.655Z,2.63
2023-05-14T12:42:37.230Z,2.60
2023-05-14T12:45:07.593Z,2.30
2023-05-14T12:47:34.821Z,2.50
2023-05-14T12:50:01.882Z,2.38
2023-05-14T12:52:37.625Z,2.60
2023-05-14T12:55:06.827Z,2.85
2023-05-14T12:57:35.909Z,3.10
2023-05-14T13:00:07.121Z,3.40
2023-05-14T13:02:41.992Z,3.30
2023-05-14T13:05:10.400Z,2.80
2023-05-14T13:07:37.366Z,2.90
2023-05-14T13:10:06.093Z,3.38
2023-05-14T13:12:33.200Z,2.67
2023-05-14T13:15:00.078Z,2.80
2023-05-14T13:17:27.026Z,3.30
2023-05-14T13:19:53.865Z,2.92
2023-05-14T13:22:24.066Z,3.10
2023-05-14T13:24:50.997Z,3.20
2023-05-14T13:27:17.845Z,3.35
2023-05-14T13:29:44.593Z,3.08
2023-05-14T13:32:11.452Z,2.50
2023-05-14T13:34:38.244Z,2.70
2023-05-14T13:37:05.062Z,2.72
2023-05-14T13:39:31.795Z,2.30
2023-05-14T13:41:58.740Z,2.50
2023-05-14T13:44:25.588Z,2.67
2023-05-14T13:46:52.738Z,2.47
2023-05-14T13:49:19.825Z,2.40
2023-05-14T13:51:46.524Z,2.42
2023-05-14T13:54:13.553Z,2.88
2023-05-14T13:56:40.531Z,2.90
2023-05-14T13:59:07.408Z,2.67
2023-05-14T14:01:34.139Z,2.95
2023-05-14T14:04:01.143Z,2.55
2023-05-14T14:06:27.879Z,3.10
2023-05-14T14:08:54.966Z,2.88
2023-05-14T14:11:22.499Z,3.17
2023-05-14T14:13:49.345Z,3.03
2023-05-14T14:16:16.517Z,3.00
2023-05-14T14:18:43.602Z,3.00
2023-05-14T14:21:10.760Z,3.58
2023-05-14T14:23:37.656Z,3.08
2023-05-14T14:26:04.648Z,3.30
2023-05-14T14:28:31.663Z,2.60
2023-05-14T14:31:00.842Z,2.38
2023-05-14T14:33:28.017Z,2.65
2023-05-14T14:35:54.952Z,3.20
2023-05-14T14:38:21.888Z,3.33
2023-05-14T14:40:49.276Z,3.47
2023-05-14T14:43:16.785Z,3.15
2023-05-14T14:45:48.232Z,3.97
2023-05-14T14:48:34.736Z,3.90
2023-05-14T14:51:01.815Z,3.30
2023-05-14T14:53:28.957Z,2.65
2023-05-14T14:55:56.073Z,2.20
2023-05-14T14:58:23.302Z,1.98
2023-05-14T15:00:55.356Z,1.52
2023-05-14T15:03:23.123Z,1.40
2023-05-14T15:05:50.188Z,1.27
2023-05-14T15:08:17.196Z,1.27
2023-05-14T15:10:45.268Z,1.10
2023-05-14T15:13:15.858Z,1.38
2023-05-14T15:15:42.603Z,1.23
2023-05-14T15:18:09.831Z,1.70
2023-05-14T15:20:36.560Z,2.03
2023-05-14T15:23:03.547Z,2.63
2023-05-14T15:25:30.375Z,2.50
2023-05-14T15:27:57.943Z,2.40
2023-05-14T15:30:24.722Z,3.05
2023-05-14T15:32:51.933Z,3.50
2023-05-14T15:35:19.009Z,3.65
2023-05-14T15:37:45.918Z,3.00
2023-05-14T15:40:13.406Z,2.80
2023-05-14T15:42:44.527Z,3.28
2023-05-14T15:45:12.977Z,3.40
2023-05-14T15:47:40.957Z,3.55
2023-05-14T15:50:08.954Z,3.17
2023-05-14T15:52:40.463Z,3.03
2023-05-14T15:55:11.813Z,3.50
2023-05-14T15:57:38.812Z,3.40
2023-05-14T16:00:10.712Z,3.60
2023-05-14T16:02:40.537Z,3.42
2023-05-14T16:05:08.760Z,3.33
2023-05-14T16:07:36.638Z,3.08
2023-05-14T16:10:07.023Z,2.90
2023-05-14T16:12:34.327Z,3.13
2023-05-14T16:15:01.562Z,3.35
2023-05-14T16:17:28.965Z,2.90
2023-05-14T16:19:56.615Z,3.08
2023-05-14T16:22:23.722Z,3.20
2023-05-14T16:24:50.582Z,3.25
2023-05-14T16:27:19.319Z,3.20
2023-05-14T16:29:46.260Z,3.20
2023-05-14T16:32:13.235Z,2.92
2023-05-14T16:34:40.332Z,2.83
2023-05-14T16:37:07.394Z,2.70
2023-05-14T16:39:34.630Z,2.88
2023-05-14T16:42:01.389Z,2.88
2023-05-14T16:44:28.197Z,2.88
2023-05-14T16:46:55.072Z,3.20
2023-05-14T16:49:23.284Z,3.00
2023-05-14T16:51:50.505Z,3.30
2023-05-14T16:54:17.361Z,3.40
2023-05-14T16:56:48.808Z,3.08
2023-05-14T16:59:16.658Z,3.17
2023-05-14T17:01:45.244Z,2.97
2023-05-14T17:04:12.182Z,2.90
2023-05-14T17:06:38.919Z,3.00
2023-05-14T17:09:05.918Z,2.92
2023-05-14T17:11:32.731Z,2.63
2023-05-14T17:13:59.379Z,2.60
2023-05-14T17:16:27.329Z,2.60
2023-05-14T17:18:54.355Z,2.60
2023-05-14T17:21:21.089Z,2.67
2023-05-14T17:23:47.896Z,2.80
2023-05-14T17:26:14.658Z,2.53
2023-05-14T17:28:41.367Z,2.75
2023-05-14T17:31:08.186Z,2.65
2023-05-14T17:33:34.899Z,2.38
2023-05-14T17:36:01.762Z,2.60
2023-05-14T17:38:28.520Z,2.65
2023-05-14T17:40:55.608Z,2.70
2023-05-14T17:43:22.324Z,2.50
2023-05-14T17:48:19.712Z,2.58
2023-05-14T17:50:46.415Z,2.55
2023-05-14T17:53:13.218Z,2.60
2023-05-14T17:55:43.891Z,2.83
2023-05-14T17:58:15.661Z,2.67
2023-05-14T18:00:43.912Z,2.60
2023-05-14T18:03:10.945Z,2.70
2023-05-14T18:05:37.713Z,2.50
2023-05-14T18:08:04.614Z,3.00
2023-05-14T18:10:31.411Z,3.17
2023-05-14T18:12:58.478Z,3.38
2023-05-14T18:15:26.094Z,2.60
2023-05-14T18:17:53.194Z,3.13
2023-05-14T18:20:20.740Z,3.45
2023-05-14T18:22:47.467Z,3.50
2023-05-14T18:25:14.375Z,3.45
2023-05-14T18:27:44.950Z,3.45
2023-05-14T18:30:13.589Z,3.70
2023-05-14T18:32:41.700Z,3.75
2023-05-14T18:35:08.942Z,5.32
2023-05-14T18:37:35.802Z,5.40
2023-05-14T18:40:04.502Z,7.50
2023-05-14T18:42:31.314Z,8.45
2023-05-14T18:44:58.088Z,6.57
2023-05-14T18:47:24.994Z,5.10
2023-05-14T18:49:55.469Z,6.30
2023-05-14T18:52:23.138Z,4.15
2023-05-14T18:54:51.381Z,3.83
2023-05-14T18:57:18.214Z,3.90
2023-05-14T18:59:44.943Z,4.05
2023-05-14T19:02:11.655Z,3.85
2023-05-14T19:04:50.632Z,3.50
2023-05-14T19:07:19.057Z,3.45
2023-05-14T19:09:46.094Z,3.97
2023-05-14T19:12:13.277Z,3.80
2023-05-14T19:14:40.308Z,4.28
2023-05-14T19:17:07.049Z,4.43
2023-05-14T19:19:33.999Z,4.10
2023-05-14T19:22:00.752Z,4.07
2023-05-14T19:24:27.530Z,3.70
2023-05-14T19:26:54.345Z,3.97
2023-05-14T19:29:21.060Z,4.35
2023-05-14T19:31:47.846Z,4.07
2023-05-14T19:34:14.673Z,4.25
2023-05-14T19:36:41.995Z,4.78
2023-05-14T19:39:08.740Z,4.25
2023-05-14T19:41:35.535Z,4.63
2023-05-14T19:44:02.278Z,4.90
2023-05-14T19:46:29.188Z,5.40
2023-05-14T19:48:55.871Z,4.55
2023-05-14T19:51:22.647Z,4.63
2023-05-14T19:53:49.385Z,4.75
2023-05-14T19:56:16.326Z,5.40
2023-05-14T19:58:43.912Z,5.18
2023-05-14T20:01:12.283Z,4.78
2023-05-14T20:03:39.290Z,4.75
2023-05-14T20:06:07.438Z,4.80
2023-05-14T20:08:34.180Z,4.50
2023-05-14T20:11:01.121Z,4.50
2023-05-14T20:13:27.926Z,5.00
2023-05-14T20:15:55.371Z,4.78
2023-05-14T20:18:22.224Z,4.63
2023-05-14T20:20:49.406Z,4.30
2023-05-14T20:23:16.188Z,4.78
2023-05-14T20:25:43.335Z,4.70
2023-05-14T20:28:10.736Z,4.60
2023-05-14T20:30:37.681Z,4.60
2023-05-14T20:33:04.614Z,4.40
2023-05-14T20:35:31.452Z,4.47
2023-05-14T20:37:58.861Z,4.78
2023-05-14T20:40:25.715Z,6.47
2023-05-14T20:42:52.495Z,5.07
2023-05-14T20:45:19.306Z,4.13
2023-05-14T20:47:46.421Z,4.60
2023-05-14T20:50:13.978Z,4.60
2023-05-14T20:52:41.057Z,9.13
2023-05-14T20:55:08.818Z,8.57
2023-05-14T20:57:35.807Z,5.70
2023-05-14T21:00:07.265Z,4.80
2023-05-14T21:02:34.856Z,5.03
2023-05-14T21:05:01.856Z,6.50
2023-05-14T21:07:29.039Z,7.85
2023-05-14T21:09:55.915Z,6.60
2023-05-14T21:12:22.880Z,5.43
2023-05-14T21:14:49.572Z,4.90
2023-05-14T21:17:16.265Z,4.45
2023-05-14T21:19:43.014Z,5.20
2023-05-14T21:22:09.696Z,4.72
2023-05-14T21:24:36.432Z,4.63
2023-05-14T21:27:03.158Z,4.80
2023-05-14T21:29:29.950Z,4.85
2023-05-14T21:31:56.687Z,5.10
2023-05-14T21:34:23.401Z,4.82
2023-05-14T21:36:50.362Z,4.90
2023-05-14T21:39:17.067Z,4.95
2023-05-14T21:41:43.845Z,4.85
2023-05-14T21:44:10.591Z,4.93
2023-05-14T21:46:37.272Z,5.68
2023-05-14T21:49:04.032Z,5.18
2023-05-14T21:51:32.400Z,5.03
2023-05-14T21:53:59.195Z,4.95
2023-05-14T21:56:26.593Z,5.55
2023-05-14T21:58:55.755Z,5.78
2023-05-14T22:01:22.534Z,5.90
2023-05-14T22:03:49.420Z,9.10
2023-05-14T22:06:16.141Z,8.27
2023-05-14T22:08:42.922Z,9.15
2023-05-14T22:11:09.635Z,6.75
2023-05-14T22:13:41.108Z,7.28
2023-05-14T22:16:13.307Z,6.00
2023-05-14T22:18:40.904Z,6.20
2023-05-14T22:21:07.717Z,6.82
2023-05-14T22:23:34.600Z,9.98
2023-05-14T22:26:01.570Z,15.30
2023-05-14T22:28:28.317Z,14.02
2023-05-14T22:30:56.783Z,12.70
2023-05-14T22:33:23.551Z,9.85
2023-05-14T22:35:50.293Z,7.90
2023-05-14T22:38:17.017Z,6.65
2023-05-14T22:40:43.752Z,5.30
2023-05-14T22:43:10.937Z,5.25
2023-05-14T22:45:37.670Z,5.45
2023-05-14T22:48:04.629Z,5.60
2023-05-14T22:50:31.423Z,6.13
2023-05-14T22:52:58.369Z,5.82
2023-05-14T22:55:25.193Z,5.32
2023-05-14T22:57:52.104Z,5.13
2023-05-14T23:00:19.054Z,5.03
2023-05-14T23:02:45.962Z,5.65
2023-05-14T23:05:12.741Z,5.85
2023-05-14T23:07:39.557Z,5.95
2023-05-14T23:10:06.943Z,6.05
2023-05-14T23:12:33.794Z,5.88
2023-05-14T23:15:00.570Z,5.15
2023-05-14T23:17:27.392Z,4.85
2023-05-14T23:19:54.335Z,5.35
2023-05-14T23:22:21.169Z,5.20
2023-05-14T23:24:47.864Z,5.50
2023-05-14T23:27:14.580Z,5.43
2023-05-14T23:29:41.317Z,5.63
2023-05-14T23:32:08.659Z,5.60
2023-05-14T23:34:35.743Z,5.40
2023-05-14T23:37:02.614Z,5.40
2023-05-14T23:39:29.387Z,5.50
2023-05-14T23:41:56.104Z,5.80
2023-05-14T23:44:22.900Z,5.47
2023-05-14T23:46:49.742Z,5.55
2023-05-14T23:49:16.556Z,5.25
2023-05-14T23:51:43.370Z,5.53
2023-05-14T23:54:10.086Z,5.13
2023-05-14T23:56:36.858Z,5.30
2023-05-14T23:59:03.921Z,5.82
